Aeroporto :
LOGIN :

Iscrizione | Disclaimer

   EN    FR    IT 

 










Sommario :    VFR   VFR Marginale   IFR   IFR Intensivo   IFR Molto Intensivo
Visibilità : 
Base nubi : 
>= 8 km
>= 3000ft
5 / 8 km
1000 / 3000 ft
1500m / 5 km
500 / 1000 ft
800 / 1500m
200 / 500 ft
< 800m
< 200 ft
Simboli :   Temporali  Nebbia  Neve Forte  Precipitazioni Forti  Vento > 20 kt
SIGMETs :   Varie  Temporali  Ghiacco  Turbolenza  Onda orograficha  Ceneri Vulcaniche






- Altitudine del aeroporto : 584 ft


LFPV - Villacoublay Vélizy

ULTIMO METAR :
  • 281130Z AUTO 25009KT 210V270 9999 BKN010 09/08 Q1012 BECMG SCT015 SCT025

METARs OBSOLETI :
  • 281100Z AUTO 24008KT 9999 BKN009 10/08 Q1012 BECMG SCT015 SCT025
  • 281030Z AUTO 25007KT 9999 BKN007 BKN200 09/08 Q1012 BECMG SCT015 SCT025
  • 281000Z AUTO 25005KT 9999 SCT006 OVC200 08/08 Q1012 TEMPO BKN008
  • 280930Z AUTO 26004KT 9999 FEW005 OVC190 08/07 Q1012 TEMPO BKN008
  • 280900Z AUTO 23004KT 9999 FEW006 BKN180 OVC200 08/07 Q1012 TEMPO BKN008

TAF TAF LFPV
Valido dal 28 a 09 ore il 29 a 09 ore UTC


280800Z 2809/2909 24005KT 9999 SCT015 SCT025 TX10/2814Z TN04/2903Z
TEMPO 2809/2812 BKN008
BECMG 2902/2904 3000 BR
BECMG 2904/2906 0250 FG VV///



MetMap, La meteo Aeronautica in un colpo d'occhio ! - Copyright ORBIFLY Dicembre 2007 - Disclaimer

ORBIFLY MET'MAP TEAM :

Programmazione e sviluppo : Alexandra Zaïnal
Concezione : Baudouin d'Aumeries
Supporto tecnico e logistico : Manuel Goepfert
Aiuto : Marc-Olivier Méhu
Aiuto per la traduzione : Arnaldo La Scala




FONTI E CREDITI :

   NOAA